createdAt,value
2018-10-09T00:01:52.536Z,17.80
2018-10-09T00:04:21.020Z,17.40
2018-10-09T00:06:49.521Z,18.47
2018-10-09T00:09:18.005Z,18.00
2018-10-09T00:11:46.506Z,17.37
2018-10-09T00:14:14.960Z,16.50
2018-10-09T00:16:43.428Z,15.67
2018-10-09T00:19:11.925Z,16.90
2018-10-09T00:21:40.405Z,16.30
2018-10-09T00:24:08.894Z,17.33
2018-10-09T00:26:37.417Z,17.03
2018-10-09T00:29:06.076Z,16.77
2018-10-09T00:31:34.549Z,17.40
2018-10-09T00:34:03.163Z,16.83
2018-10-09T00:36:31.648Z,17.77
2018-10-09T00:39:00.144Z,16.70
2018-10-09T00:41:28.640Z,17.20
2018-10-09T00:43:57.205Z,17.73
2018-10-09T00:46:25.731Z,17.53
2018-10-09T00:48:54.213Z,16.53
2018-10-09T00:51:22.738Z,16.80
2018-10-09T00:53:51.232Z,19.10
2018-10-09T00:56:19.802Z,18.23
2018-10-09T00:58:48.272Z,17.40
2018-10-09T01:01:16.820Z,17.63
2018-10-09T01:03:45.287Z,17.30
2018-10-09T01:06:13.754Z,16.43
2018-10-09T01:08:42.202Z,15.70
2018-10-09T01:11:10.943Z,17.20
2018-10-09T01:13:39.379Z,16.40
2018-10-09T01:16:08.200Z,16.30
2018-10-09T01:18:36.656Z,17.03
2018-10-09T01:21:05.125Z,15.83
2018-10-09T01:23:33.612Z,15.93
2018-10-09T01:26:02.080Z,15.80
2018-10-09T01:28:30.568Z,16.67
2018-10-09T01:30:59.045Z,16.47
2018-10-09T01:33:27.548Z,17.83
2018-10-09T01:35:56.033Z,16.50
2018-10-09T01:38:24.528Z,16.73
2018-10-09T01:40:52.992Z,18.27
2018-10-09T01:43:21.509Z,17.13
2018-10-09T01:45:50.089Z,16.20
2018-10-09T01:48:18.564Z,18.03
2018-10-09T01:50:47.061Z,17.33
2018-10-09T01:53:15.528Z,16.97
2018-10-09T01:55:44.046Z,16.47
2018-10-09T01:58:12.513Z,15.87
2018-10-09T02:00:40.980Z,15.67
2018-10-09T02:03:09.497Z,15.93
2018-10-09T02:05:38.015Z,16.30
2018-10-09T02:08:06.501Z,18.43
2018-10-09T02:10:35.024Z,19.03
2018-10-09T02:13:03.517Z,18.47
2018-10-09T02:15:31.976Z,20.90
2018-10-09T02:18:00.472Z,19.90
2018-10-09T02:20:28.942Z,19.80
2018-10-09T02:22:57.436Z,20.23
2018-10-09T02:25:25.892Z,18.00
2018-10-09T02:27:54.385Z,20.77
2018-10-09T02:30:22.864Z,19.60
2018-10-09T02:32:51.373Z,18.30
2018-10-09T02:35:19.842Z,19.63
2018-10-09T02:37:48.340Z,21.17
2018-10-09T02:40:16.817Z,18.43
2018-10-09T02:42:45.356Z,19.90
2018-10-09T02:45:13.913Z,17.47
2018-10-09T02:47:42.449Z,18.23
2018-10-09T02:50:10.946Z,18.53
2018-10-09T02:52:39.472Z,17.50
2018-10-09T02:55:08.009Z,19.90
2018-10-09T02:57:36.669Z,18.83
2018-10-09T03:00:05.264Z,17.53
2018-10-09T03:02:33.792Z,16.97
2018-10-09T03:05:02.294Z,17.77
2018-10-09T03:07:30.857Z,16.90
2018-10-09T03:09:59.470Z,16.77
2018-10-09T03:12:27.992Z,18.27
2018-10-09T03:14:56.582Z,17.60
2018-10-09T03:17:25.120Z,16.90
2018-10-09T03:19:53.644Z,16.90
2018-10-09T03:22:22.276Z,15.33
2018-10-09T03:24:50.806Z,17.10
2018-10-09T03:27:19.288Z,16.20
2018-10-09T03:29:47.817Z,16.20
2018-10-09T03:32:16.312Z,16.17
2018-10-09T03:34:44.825Z,16.83
2018-10-09T03:37:13.320Z,16.13
2018-10-09T03:39:41.837Z,17.80
2018-10-09T03:42:10.313Z,17.53
2018-10-09T03:44:38.833Z,17.00
2018-10-09T03:47:07.345Z,17.90
2018-10-09T03:49:35.833Z,17.30
2018-10-09T03:52:04.376Z,17.07
2018-10-09T03:54:33.001Z,18.20
2018-10-09T03:57:01.561Z,18.30
2018-10-09T03:59:30.056Z,19.40
2018-10-09T04:01:58.568Z,18.80
2018-10-09T04:04:27.049Z,18.33
2018-10-09T04:06:55.572Z,20.20
2018-10-09T04:09:24.068Z,17.07
2018-10-09T04:11:52.581Z,19.10
2018-10-09T04:14:21.076Z,19.43
2018-10-09T04:16:49.592Z,18.80
2018-10-09T04:19:18.115Z,19.67
2018-10-09T04:21:46.607Z,20.47
2018-10-09T04:24:15.137Z,21.13
2018-10-09T04:26:43.633Z,22.07
2018-10-09T04:29:12.152Z,21.80
2018-10-09T04:31:40.657Z,22.83
2018-10-09T04:34:09.440Z,20.13
2018-10-09T04:36:37.932Z,20.17
2018-10-09T04:39:08.345Z,20.53
2018-10-09T04:41:36.893Z,20.80
2018-10-09T04:44:05.425Z,19.33
2018-10-09T04:46:33.904Z,19.47
2018-10-09T04:49:02.416Z,20.43
2018-10-09T04:51:31.333Z,20.70
2018-10-09T04:53:59.858Z,20.87
2018-10-09T04:56:28.340Z,21.10
2018-10-09T04:58:56.911Z,20.80
2018-10-09T05:01:25.404Z,21.70
2018-10-09T05:03:53.925Z,22.13
2018-10-09T05:06:22.428Z,22.70
2018-10-09T05:08:50.904Z,23.33
2018-10-09T05:11:19.528Z,22.03
2018-10-09T05:13:48.013Z,21.00
2018-10-09T05:16:16.617Z,20.83
2018-10-09T05:18:45.101Z,21.10
2018-10-09T05:21:13.632Z,22.27
2018-10-09T05:23:42.113Z,22.30
2018-10-09T05:26:10.684Z,21.00
2018-10-09T05:28:39.168Z,21.47
2018-10-09T05:31:07.782Z,21.33
2018-10-09T05:33:36.249Z,22.90
2018-10-09T05:36:04.769Z,21.47
2018-10-09T05:38:33.249Z,21.67
2018-10-09T05:41:01.777Z,24.10
2018-10-09T05:43:30.264Z,22.27
2018-10-09T05:45:58.788Z,23.73
2018-10-09T05:48:27.280Z,23.30
2018-10-09T05:50:55.797Z,23.90
2018-10-09T05:53:24.289Z,25.40
2018-10-09T05:55:52.802Z,25.17
2018-10-09T05:58:21.293Z,24.07
2018-10-09T06:00:49.848Z,24.70
2018-10-09T06:03:18.349Z,24.50
2018-10-09T06:05:47.208Z,23.97
2018-10-09T06:08:15.962Z,22.53
2018-10-09T06:10:44.484Z,23.17
2018-10-09T06:13:13.000Z,24.87
2018-10-09T06:15:41.625Z,24.13
2018-10-09T06:18:10.650Z,24.00
2018-10-09T06:20:39.193Z,23.93
2018-10-09T06:23:07.905Z,23.83
2018-10-09T06:25:36.405Z,22.90
2018-10-09T06:28:05.692Z,25.20
2018-10-09T06:30:34.487Z,23.57
2018-10-09T06:33:03.010Z,23.53
2018-10-09T06:35:31.506Z,22.20
2018-10-09T06:38:00.022Z,21.77
2018-10-09T06:40:28.564Z,22.90
2018-10-09T06:42:57.330Z,22.63
2018-10-09T06:45:25.984Z,23.27
2018-10-09T06:47:54.473Z,20.73
2018-10-09T06:50:22.988Z,23.07
2018-10-09T06:52:51.492Z,23.80
2018-10-09T06:55:20.017Z,21.50
2018-10-09T06:57:48.508Z,22.43
2018-10-09T07:00:17.123Z,21.23
2018-10-09T07:02:45.532Z,21.93
2018-10-09T07:05:14.053Z,23.17
2018-10-09T07:07:42.544Z,21.07
2018-10-09T07:10:11.077Z,23.10
2018-10-09T07:12:39.675Z,25.13
2018-10-09T07:15:08.757Z,25.50
2018-10-09T07:17:37.257Z,26.03
2018-10-09T07:20:05.801Z,26.67
2018-10-09T07:22:34.365Z,26.57
2018-10-09T07:25:02.902Z,26.47
2018-10-09T07:27:31.402Z,26.60
2018-10-09T07:30:00.014Z,27.00
2018-10-09T07:32:28.505Z,26.70
2018-10-09T07:34:57.049Z,25.20
2018-10-09T07:37:25.566Z,26.57
2018-10-09T07:39:54.144Z,25.80
2018-10-09T07:42:22.641Z,26.67
2018-10-09T07:44:51.145Z,26.70
2018-10-09T07:47:19.753Z,26.27
2018-10-09T07:49:48.258Z,30.90
2018-10-09T07:52:16.745Z,31.07
2018-10-09T07:54:45.297Z,29.77
2018-10-09T07:57:13.817Z,30.47
2018-10-09T07:59:42.335Z,31.07
2018-10-09T08:02:10.858Z,30.93
2018-10-09T08:04:39.386Z,28.63
2018-10-09T08:07:07.925Z,30.07
2018-10-09T08:09:36.417Z,31.90
2018-10-09T08:12:05.005Z,32.10
2018-10-09T08:14:33.498Z,32.17
2018-10-09T08:17:02.182Z,34.10
2018-10-09T08:19:30.657Z,34.00
2018-10-09T08:21:59.289Z,34.53
2018-10-09T08:24:27.779Z,34.20
2018-10-09T08:26:56.286Z,37.30
2018-10-09T08:29:24.774Z,35.60
2018-10-09T08:31:53.293Z,34.17
2018-10-09T08:34:21.809Z,36.53
2018-10-09T08:36:50.409Z,36.13
2018-10-09T08:39:18.856Z,35.30
2018-10-09T08:41:47.337Z,35.80
2018-10-09T08:44:15.853Z,33.07
2018-10-09T08:46:44.344Z,32.40
2018-10-09T08:49:12.859Z,34.20
2018-10-09T08:51:41.340Z,34.67
2018-10-09T08:54:09.868Z,34.37
2018-10-09T08:56:38.401Z,34.27
2018-10-09T08:59:06.932Z,33.00
2018-10-09T09:01:35.425Z,34.90
2018-10-09T09:04:03.953Z,35.50
2018-10-09T09:06:32.481Z,36.37
2018-10-09T09:09:00.965Z,37.10
2018-10-09T09:11:29.486Z,37.10
2018-10-09T09:13:58.023Z,36.40
2018-10-09T09:16:26.565Z,38.47
2018-10-09T09:18:55.058Z,37.30
2018-10-09T09:21:23.597Z,37.37
2018-10-09T09:23:52.103Z,37.27
2018-10-09T09:26:20.654Z,35.57
2018-10-09T09:28:49.121Z,37.20
2018-10-09T09:31:17.611Z,36.23
2018-10-09T09:33:46.237Z,35.97
2018-10-09T09:36:14.809Z,35.80
2018-10-09T09:38:43.321Z,37.60
2018-10-09T09:41:11.952Z,39.63
2018-10-09T09:43:40.481Z,36.33
2018-10-09T09:46:08.984Z,35.90
2018-10-09T09:48:37.519Z,36.77
2018-10-09T09:51:06.185Z,36.20
2018-10-09T09:53:34.961Z,34.87
2018-10-09T09:56:03.492Z,34.43
2018-10-09T09:58:32.076Z,31.53
2018-10-09T10:01:05.965Z,33.50
2018-10-09T10:03:34.502Z,31.27
2018-10-09T10:06:03.749Z,30.13
2018-10-09T10:08:32.238Z,30.57
2018-10-09T10:11:00.784Z,30.10
2018-10-09T10:13:29.305Z,29.80
2018-10-09T10:15:57.813Z,30.60
2018-10-09T10:18:26.868Z,28.00
2018-10-09T10:20:55.389Z,28.97
2018-10-09T10:23:23.881Z,27.10
2018-10-09T10:25:52.477Z,28.10
2018-10-09T10:28:20.997Z,29.43
2018-10-09T10:30:49.530Z,27.73
2018-10-09T10:33:18.025Z,27.20
2018-10-09T10:35:46.624Z,26.30
2018-10-09T10:38:15.045Z,26.97
2018-10-09T10:40:43.566Z,28.00
2018-10-09T10:43:12.057Z,28.20
2018-10-09T10:45:40.570Z,27.37
2018-10-09T10:48:09.081Z,26.87
2018-10-09T10:50:37.594Z,27.70
2018-10-09T10:53:06.105Z,26.60
2018-10-09T10:55:34.610Z,25.87
2018-10-09T10:58:03.136Z,27.90
2018-10-09T11:00:31.644Z,27.23
2018-10-09T11:03:00.142Z,25.80
2018-10-09T11:05:28.666Z,26.60
2018-10-09T11:07:57.277Z,26.27
2018-10-09T11:10:25.732Z,26.70
2018-10-09T11:12:54.277Z,28.07
2018-10-09T11:15:22.756Z,26.53
2018-10-09T11:17:51.312Z,27.13
2018-10-09T11:20:20.013Z,26.93
2018-10-09T11:22:48.545Z,27.27
2018-10-09T11:25:17.057Z,27.00
2018-10-09T11:27:45.580Z,27.97
2018-10-09T11:30:14.071Z,27.57
2018-10-09T11:32:42.554Z,29.80
2018-10-09T11:35:11.070Z,25.83
2018-10-09T11:37:39.558Z,24.70
2018-10-09T11:40:08.141Z,24.90
2018-10-09T11:42:36.681Z,24.87
2018-10-09T11:45:05.197Z,23.40
2018-10-09T11:47:33.689Z,24.10
2018-10-09T11:50:02.222Z,25.10
2018-10-09T11:52:30.729Z,24.90
2018-10-09T11:54:59.249Z,23.50
2018-10-09T11:57:27.737Z,24.30
2018-10-09T11:59:56.222Z,25.23
2018-10-09T12:02:24.734Z,23.80
2018-10-09T12:04:53.220Z,25.43
2018-10-09T12:07:21.740Z,24.70
2018-10-09T12:09:50.277Z,23.73
2018-10-09T12:12:18.838Z,23.97
2018-10-09T12:14:47.324Z,23.60
2018-10-09T12:17:15.825Z,23.60
2018-10-09T12:19:44.309Z,22.33
2018-10-09T12:22:12.839Z,22.53
2018-10-09T12:24:41.321Z,21.23
2018-10-09T12:27:09.902Z,22.70
2018-10-09T12:29:38.432Z,20.07
2018-10-09T12:32:06.994Z,20.70
2018-10-09T12:34:35.472Z,22.73
2018-10-09T12:37:03.997Z,19.07
2018-10-09T12:39:32.476Z,20.13
2018-10-09T12:42:00.989Z,24.60
2018-10-09T12:44:29.556Z,22.17
2018-10-09T12:46:58.012Z,21.50
2018-10-09T12:49:26.489Z,20.13
2018-10-09T12:51:55.033Z,20.20
2018-10-09T12:54:23.522Z,20.20
2018-10-09T12:56:52.035Z,21.43
2018-10-09T12:59:20.519Z,20.20
2018-10-09T13:01:49.105Z,18.97
2018-10-09T13:04:17.581Z,20.70
2018-10-09T13:06:46.101Z,21.00
2018-10-09T13:09:14.921Z,20.30
2018-10-09T13:11:43.797Z,22.23
2018-10-09T13:14:12.287Z,21.87
2018-10-09T13:16:40.814Z,19.90
2018-10-09T13:19:09.321Z,19.40
2018-10-09T13:21:38.379Z,20.30
2018-10-09T13:24:06.977Z,19.80
2018-10-09T13:26:35.495Z,19.87
2018-10-09T13:29:04.017Z,21.07
2018-10-09T13:31:32.548Z,20.87
2018-10-09T13:34:01.111Z,20.77
2018-10-09T13:36:29.562Z,21.23
2018-10-09T13:38:58.065Z,21.30
2018-10-09T13:41:26.562Z,20.70
2018-10-09T13:43:55.086Z,21.90
2018-10-09T13:46:23.572Z,20.17
2018-10-09T13:48:52.094Z,19.87
2018-10-09T13:51:20.593Z,19.50
2018-10-09T13:53:49.080Z,19.40
2018-10-09T13:56:17.592Z,19.33
2018-10-09T13:58:46.100Z,19.23
2018-10-09T14:01:14.630Z,19.10
2018-10-09T14:03:43.117Z,19.00
2018-10-09T14:06:11.738Z,18.77
2018-10-09T14:08:40.129Z,19.40
2018-10-09T14:11:08.833Z,17.90
2018-10-09T14:13:37.324Z,19.17
2018-10-09T14:16:05.874Z,18.00
2018-10-09T14:18:34.412Z,17.30
2018-10-09T14:21:02.928Z,18.77
2018-10-09T14:23:31.418Z,17.10
2018-10-09T14:25:59.977Z,19.30
2018-10-09T14:28:28.466Z,17.53
2018-10-09T14:30:56.998Z,17.67
2018-10-09T14:33:25.761Z,17.50
2018-10-09T14:35:54.302Z,17.43
2018-10-09T14:38:22.813Z,17.23
2018-10-09T14:40:51.326Z,16.97
2018-10-09T14:43:19.836Z,16.87
2018-10-09T14:45:48.348Z,17.20
2018-10-09T14:48:16.837Z,16.03
2018-10-09T14:50:45.357Z,15.87
2018-10-09T14:53:13.852Z,15.63
2018-10-09T14:55:42.374Z,14.70
2018-10-09T14:58:10.884Z,14.90
2018-10-09T15:00:39.397Z,14.20
2018-10-09T15:03:07.897Z,14.37
2018-10-09T15:05:36.409Z,13.73
2018-10-09T15:08:04.892Z,14.23
2018-10-09T15:10:33.406Z,14.40
2018-10-09T15:13:01.886Z,14.83
2018-10-09T15:15:30.412Z,13.97
2018-10-09T15:17:58.909Z,14.20
2018-10-09T15:20:27.426Z,14.23
2018-10-09T15:22:55.919Z,14.80
2018-10-09T15:25:24.421Z,13.33
2018-10-09T15:27:52.972Z,13.37
2018-10-09T15:30:21.489Z,15.03
2018-10-09T15:32:50.057Z,14.23
2018-10-09T15:35:18.601Z,13.90
2018-10-09T15:37:47.064Z,13.83
2018-10-09T15:40:15.581Z,13.50
2018-10-09T15:42:44.064Z,13.57
2018-10-09T15:45:12.553Z,13.23
2018-10-09T15:47:41.057Z,13.33
2018-10-09T15:50:09.552Z,14.30
2018-10-09T15:52:38.062Z,13.67
2018-10-09T15:55:06.565Z,13.00
2018-10-09T15:57:35.090Z,13.80
2018-10-09T16:00:03.931Z,14.00
2018-10-09T16:02:32.460Z,12.97
2018-10-09T16:05:00.937Z,13.80
2018-10-09T16:07:29.469Z,15.13
2018-10-09T16:09:57.965Z,14.33
2018-10-09T16:12:26.583Z,13.87
2018-10-09T16:14:55.073Z,15.60
2018-10-09T16:17:23.588Z,14.97
2018-10-09T16:19:52.069Z,14.17
2018-10-09T16:22:20.580Z,20.50
2018-10-09T16:24:49.065Z,16.27
2018-10-09T16:27:17.569Z,14.53
2018-10-09T16:29:46.057Z,14.10
2018-10-09T16:32:14.595Z,15.80
2018-10-09T16:34:43.065Z,14.53
2018-10-09T16:37:12.204Z,14.73
2018-10-09T16:39:40.688Z,16.40
2018-10-09T16:42:09.217Z,16.03
2018-10-09T16:44:37.706Z,15.43
2018-10-09T16:47:07.001Z,14.67
2018-10-09T16:49:37.145Z,15.10
2018-10-09T16:52:05.708Z,15.87
2018-10-09T16:54:34.193Z,17.23
2018-10-09T16:57:02.770Z,17.10
2018-10-09T16:59:31.261Z,16.33
2018-10-09T17:01:59.788Z,16.53
2018-10-09T17:04:28.281Z,17.00
2018-10-09T17:06:56.854Z,16.60
2018-10-09T17:09:25.345Z,17.10
2018-10-09T17:11:53.875Z,17.87
2018-10-09T17:14:22.356Z,17.37
2018-10-09T17:16:50.868Z,16.40
2018-10-09T17:19:19.341Z,17.27
2018-10-09T17:21:47.856Z,16.87
2018-10-09T17:24:16.338Z,18.67
2018-10-09T17:26:44.941Z,18.87
2018-10-09T17:29:13.365Z,17.70
2018-10-09T17:31:41.857Z,18.53
2018-10-09T17:34:10.361Z,18.77
2018-10-09T17:36:39.106Z,18.23
2018-10-09T17:39:09.814Z,16.80
2018-10-09T17:41:38.533Z,17.73
2018-10-09T17:44:07.236Z,18.60
2018-10-09T17:46:35.726Z,18.70
2018-10-09T17:49:04.252Z,17.83
2018-10-09T17:51:32.746Z,19.53
2018-10-09T17:54:01.280Z,19.33
2018-10-09T17:56:29.767Z,19.13
2018-10-09T17:58:58.273Z,18.60
2018-10-09T18:01:26.753Z,17.57
2018-10-09T18:03:55.260Z,17.10
2018-10-09T18:06:23.741Z,17.40
2018-10-09T18:08:52.269Z,17.57
2018-10-09T18:11:20.753Z,18.30
2018-10-09T18:13:49.266Z,19.03
2018-10-09T18:16:17.756Z,20.80
2018-10-09T18:18:46.264Z,19.57
2018-10-09T18:21:14.746Z,19.57
2018-10-09T18:23:43.257Z,21.00
2018-10-09T18:26:11.766Z,20.03
2018-10-09T18:28:40.289Z,18.30
2018-10-09T18:31:08.780Z,19.00
2018-10-09T18:33:37.293Z,19.43
2018-10-09T18:36:05.801Z,20.13
2018-10-09T18:38:34.318Z,19.37
2018-10-09T18:41:02.890Z,19.73
2018-10-09T18:43:31.333Z,18.90
2018-10-09T18:45:59.820Z,22.67
2018-10-09T18:48:28.329Z,20.30
2018-10-09T18:50:56.809Z,20.50
2018-10-09T18:53:25.314Z,20.20
2018-10-09T18:55:53.793Z,20.27
2018-10-09T18:58:22.293Z,20.20
2018-10-09T19:00:50.797Z,21.40
2018-10-09T19:03:19.312Z,21.27
2018-10-09T19:05:47.800Z,20.97
2018-10-09T19:08:16.301Z,21.60
2018-10-09T19:10:44.857Z,23.30
2018-10-09T19:13:13.360Z,22.10
2018-10-09T19:15:41.846Z,21.03
2018-10-09T19:18:10.359Z,22.47
2018-10-09T19:20:38.870Z,20.60
2018-10-09T19:23:07.597Z,21.00
2018-10-09T19:25:36.125Z,20.10
2018-10-09T19:28:04.618Z,20.00
2018-10-09T19:30:33.157Z,20.13
2018-10-09T19:33:01.643Z,19.90
2018-10-09T19:35:30.160Z,22.23
2018-10-09T19:37:58.637Z,21.33
2018-10-09T19:40:27.140Z,20.37
2018-10-09T19:42:55.629Z,20.60
2018-10-09T19:45:24.134Z,20.60
2018-10-09T19:47:52.648Z,20.23
2018-10-09T19:50:21.153Z,18.93
2018-10-09T19:52:49.632Z,20.03
2018-10-09T19:55:18.149Z,20.40
2018-10-09T19:57:46.638Z,20.03
2018-10-09T20:00:15.149Z,21.83
2018-10-09T20:02:43.645Z,21.30
2018-10-09T20:05:12.150Z,20.80
2018-10-09T20:07:40.676Z,20.10
2018-10-09T20:10:09.201Z,19.90
2018-10-09T20:12:37.697Z,27.03
2018-10-09T20:15:06.270Z,21.60
2018-10-09T20:17:34.757Z,21.43
2018-10-09T20:20:03.306Z,20.37
2018-10-09T20:22:31.798Z,21.60
2018-10-09T20:25:00.321Z,22.47
2018-10-09T20:27:28.804Z,21.57
2018-10-09T20:29:57.329Z,21.90
2018-10-09T20:32:25.813Z,20.93
2018-10-09T20:34:54.328Z,22.50
2018-10-09T20:37:23.053Z,20.70
2018-10-09T20:39:51.561Z,20.13
2018-10-09T20:42:20.036Z,20.30
2018-10-09T20:44:48.573Z,20.00
2018-10-09T20:47:21.277Z,20.17
2018-10-09T20:49:49.788Z,20.00
2018-10-09T20:52:18.276Z,19.80
2018-10-09T20:54:46.787Z,21.47
2018-10-09T20:57:15.269Z,21.00
2018-10-09T20:59:43.861Z,21.80
2018-10-09T21:02:12.337Z,20.53
2018-10-09T21:04:40.845Z,21.57
2018-10-09T21:07:09.316Z,21.93
2018-10-09T21:09:37.849Z,21.53
2018-10-09T21:12:06.337Z,22.40
2018-10-09T21:14:34.825Z,21.93
2018-10-09T21:17:03.348Z,22.07
2018-10-09T21:19:31.870Z,23.23
2018-10-09T21:22:00.377Z,22.23
2018-10-09T21:24:30.053Z,23.90
2018-10-09T21:26:58.549Z,22.23
2018-10-09T21:29:27.048Z,28.40
2018-10-09T21:31:55.564Z,25.80
2018-10-09T21:34:24.402Z,22.87
2018-10-09T21:36:52.920Z,24.13
2018-10-09T21:39:21.401Z,24.33
2018-10-09T21:41:49.913Z,24.40
2018-10-09T21:44:18.392Z,24.57
2018-10-09T21:46:46.901Z,23.33
2018-10-09T21:49:15.384Z,23.67
2018-10-09T21:51:43.912Z,23.43
2018-10-09T21:54:12.409Z,22.63
2018-10-09T21:56:40.929Z,24.37
2018-10-09T21:59:09.413Z,23.20
2018-10-09T22:01:37.928Z,22.37
2018-10-09T22:04:06.421Z,23.33
2018-10-09T22:06:34.940Z,22.23
2018-10-09T22:09:04.037Z,22.80
2018-10-09T22:11:32.568Z,24.30
2018-10-09T22:14:01.036Z,23.53
2018-10-09T22:16:29.555Z,22.80
2018-10-09T22:18:58.043Z,22.40
2018-10-09T22:21:26.561Z,23.20
2018-10-09T22:23:55.045Z,22.90
2018-10-09T22:26:23.569Z,22.27
2018-10-09T22:28:52.049Z,23.17
2018-10-09T22:31:20.573Z,23.33
2018-10-09T22:33:49.057Z,23.60
2018-10-09T22:36:17.565Z,22.90
2018-10-09T22:38:46.085Z,22.40
2018-10-09T22:41:14.607Z,23.20
2018-10-09T22:43:43.121Z,22.13
2018-10-09T22:46:11.626Z,22.60
2018-10-09T22:48:40.105Z,23.73
2018-10-09T22:51:08.638Z,23.30
2018-10-09T22:53:37.121Z,23.53
2018-10-09T22:56:05.636Z,22.23
2018-10-09T22:58:34.117Z,22.70
2018-10-09T23:01:02.637Z,22.00
2018-10-09T23:03:31.121Z,22.10
2018-10-09T23:05:59.601Z,22.00
2018-10-09T23:08:28.108Z,22.40
2018-10-09T23:10:56.581Z,22.27
2018-10-09T23:13:25.080Z,22.17
2018-10-09T23:15:53.557Z,21.33
2018-10-09T23:18:22.070Z,22.33
2018-10-09T23:20:50.549Z,22.40
2018-10-09T23:23:19.064Z,21.97
2018-10-09T23:25:47.701Z,22.43
2018-10-09T23:28:16.245Z,20.73
2018-10-09T23:30:44.736Z,21.83
2018-10-09T23:33:13.261Z,20.80
2018-10-09T23:35:41.753Z,22.20
2018-10-09T23:38:10.277Z,21.30
2018-10-09T23:40:38.757Z,21.87
2018-10-09T23:43:07.470Z,22.10
2018-10-09T23:45:36.041Z,21.13
2018-10-09T23:48:10.960Z,20.43
2018-10-09T23:50:41.113Z,21.43
2018-10-09T23:53:09.801Z,21.17
2018-10-09T23:55:38.932Z,22.53
2018-10-09T23:58:07.708Z,21.13
